createdAt,value
2019-02-14T00:01:08.509Z,29.14
2019-02-14T00:03:42.170Z,29.05
2019-02-14T00:06:15.632Z,29.12
2019-02-14T00:08:50.831Z,29.06
2019-02-14T00:11:25.714Z,28.89
2019-02-14T00:13:59.315Z,29.65
2019-02-14T00:16:32.621Z,28.25
2019-02-14T00:19:06.262Z,28.65
2019-02-14T00:21:41.144Z,28.40
2019-02-14T00:24:14.761Z,28.29
2019-02-14T00:26:48.050Z,28.25
2019-02-14T00:29:21.699Z,27.94
2019-02-14T00:31:55.301Z,27.19
2019-02-14T00:34:29.034Z,26.28
2019-02-14T00:37:02.506Z,26.37
2019-02-14T00:39:35.799Z,25.52
2019-02-14T00:42:09.230Z,24.98
2019-02-14T00:44:44.182Z,25.53
2019-02-14T00:47:17.746Z,25.21
2019-02-14T00:49:51.280Z,24.41
2019-02-14T00:52:25.493Z,24.15
2019-02-14T00:54:59.205Z,24.30
2019-02-14T00:57:34.263Z,24.81
2019-02-14T01:00:10.826Z,24.82
2019-02-14T01:02:44.524Z,24.29
2019-02-14T01:05:19.554Z,23.77
2019-02-14T01:07:54.493Z,23.54
2019-02-14T01:10:28.401Z,23.26
2019-02-14T01:13:02.148Z,22.99
2019-02-14T01:15:39.327Z,22.98
2019-02-14T01:18:10.892Z,23.38
2019-02-14T01:20:44.563Z,23.36
2019-02-14T01:23:18.105Z,21.66
2019-02-14T01:25:51.964Z,21.66
2019-02-14T01:28:25.746Z,21.35
2019-02-14T01:30:59.477Z,21.60
2019-02-14T01:33:32.996Z,22.12
2019-02-14T01:36:06.828Z,22.32
2019-02-14T01:38:40.646Z,23.21
2019-02-14T01:41:14.357Z,22.93
2019-02-14T01:43:48.105Z,22.58
2019-02-14T01:46:21.593Z,21.52
2019-02-14T01:48:55.557Z,21.78
2019-02-14T01:51:29.044Z,22.45
2019-02-14T01:54:03.871Z,22.29
2019-02-14T01:56:37.814Z,22.82
2019-02-14T01:59:11.258Z,22.47
2019-02-14T02:01:44.915Z,22.44
2019-02-14T02:04:19.994Z,22.46
2019-02-14T02:06:53.697Z,22.23
2019-02-14T02:09:28.877Z,21.74
2019-02-14T02:12:03.103Z,22.52
2019-02-14T02:14:37.000Z,21.74
2019-02-14T02:17:10.567Z,21.88
2019-02-14T02:19:44.054Z,20.59
2019-02-14T02:22:17.712Z,19.76
2019-02-14T02:24:52.547Z,18.92
2019-02-14T02:27:26.761Z,19.44
2019-02-14T02:30:00.673Z,19.71
2019-02-14T02:32:34.569Z,19.37
2019-02-14T02:35:09.026Z,19.56
2019-02-14T02:37:44.439Z,19.32
2019-02-14T02:40:18.137Z,19.86
2019-02-14T02:42:52.069Z,19.34
2019-02-14T02:45:25.733Z,18.97
2019-02-14T02:48:00.990Z,19.26
2019-02-14T02:50:34.640Z,19.84
2019-02-14T02:53:08.272Z,19.37
2019-02-14T02:55:41.666Z,19.46
2019-02-14T02:58:15.265Z,19.70
2019-02-14T03:00:49.039Z,19.40
2019-02-14T03:03:22.572Z,19.78
2019-02-14T03:05:56.078Z,19.30
2019-02-14T03:08:29.937Z,19.25
2019-02-14T03:11:03.312Z,19.08
2019-02-14T03:13:40.381Z,19.06
2019-02-14T03:22:15.812Z,18.54
2019-02-14T03:24:49.542Z,18.82
2019-02-14T03:27:23.074Z,18.78
2019-02-14T03:29:56.685Z,18.74
2019-02-14T03:32:30.487Z,19.07
2019-02-14T03:35:05.425Z,18.70
2019-02-14T03:37:39.832Z,18.98
2019-02-14T03:40:15.196Z,18.75
2019-02-14T03:42:49.421Z,19.28
2019-02-14T03:45:29.348Z,18.54
2019-02-14T03:48:01.124Z,18.54
2019-02-14T03:50:34.801Z,18.00
2019-02-14T03:53:08.500Z,17.84
2019-02-14T03:55:42.044Z,18.00
2019-02-14T03:58:16.755Z,18.57
2019-02-14T04:00:51.806Z,18.18
2019-02-14T04:03:25.463Z,18.42
2019-02-14T04:05:59.078Z,18.31
2019-02-14T04:08:32.615Z,18.19
2019-02-14T04:11:06.620Z,18.60
2019-02-14T04:13:40.456Z,18.59
2019-02-14T04:16:15.314Z,18.73
2019-02-14T04:18:49.760Z,19.00
2019-02-14T04:21:23.411Z,19.35
2019-02-14T04:23:59.012Z,18.96
2019-02-14T04:26:32.745Z,18.45
2019-02-14T04:29:07.805Z,19.03
2019-02-14T04:31:41.644Z,18.62
2019-02-14T04:34:19.017Z,18.56
2019-02-14T04:36:55.809Z,18.01
2019-02-14T04:39:30.737Z,18.37
2019-02-14T04:42:04.653Z,18.12
2019-02-14T04:44:38.233Z,18.14
2019-02-14T04:47:11.926Z,18.51
2019-02-14T04:49:45.663Z,18.44
2019-02-14T04:52:19.383Z,18.43
2019-02-14T04:54:53.251Z,18.24
2019-02-14T04:57:26.940Z,18.09
2019-02-14T05:00:01.957Z,18.82
2019-02-14T05:02:35.521Z,18.46
2019-02-14T05:05:10.427Z,18.50
2019-02-14T05:07:44.401Z,18.29
2019-02-14T05:10:18.104Z,17.85
2019-02-14T05:12:53.142Z,18.01
2019-02-14T05:15:26.969Z,18.16
2019-02-14T05:18:00.801Z,18.22
2019-02-14T05:20:34.630Z,17.99
2019-02-14T05:23:08.433Z,18.05
2019-02-14T05:25:43.490Z,17.79
2019-02-14T05:28:17.329Z,18.07
2019-02-14T05:30:52.469Z,18.15
2019-02-14T05:33:26.257Z,18.22
2019-02-14T05:36:00.847Z,17.83
2019-02-14T05:38:34.612Z,17.87
2019-02-14T05:41:08.256Z,18.10
2019-02-14T05:43:42.448Z,17.71
2019-02-14T05:46:17.986Z,17.87
2019-02-14T05:48:51.880Z,18.22
2019-02-14T05:51:32.022Z,20.47
2019-02-14T06:05:34.029Z,18.53
2019-02-14T06:06:14.003Z,17.78
2019-02-14T06:08:08.087Z,18.02
2019-02-14T06:10:41.808Z,17.92
2019-02-14T06:13:15.535Z,17.77
2019-02-14T06:15:50.253Z,17.76
2019-02-14T06:18:23.902Z,17.93
2019-02-14T06:20:57.621Z,18.19
2019-02-14T06:23:32.666Z,17.77
2019-02-14T06:26:07.138Z,18.14
2019-02-14T06:28:40.867Z,17.98
2019-02-14T06:31:16.868Z,17.73
2019-02-14T06:33:51.245Z,17.85
2019-02-14T06:36:25.718Z,18.13
2019-02-14T06:38:59.753Z,18.57
2019-02-14T06:41:33.307Z,18.96
2019-02-14T06:44:08.715Z,18.61
2019-02-14T06:46:44.491Z,18.58
2019-02-14T06:49:18.143Z,18.04
2019-02-14T06:51:52.131Z,17.99
2019-02-14T06:54:25.793Z,18.03
2019-02-14T06:57:00.014Z,18.34
2019-02-14T06:59:33.772Z,18.31
2019-02-14T07:02:07.300Z,18.32
2019-02-14T07:04:40.762Z,18.52
2019-02-14T07:07:18.530Z,18.07
2019-02-14T07:09:50.181Z,18.12
2019-02-14T07:12:23.852Z,18.53
2019-02-14T07:14:57.646Z,18.30
2019-02-14T07:17:31.430Z,18.17
2019-02-14T07:20:07.125Z,18.39
2019-02-14T07:22:43.033Z,18.29
2019-02-14T07:25:18.487Z,18.29
2019-02-14T07:27:55.366Z,18.52
2019-02-14T07:30:30.426Z,19.02
2019-02-14T07:33:06.795Z,19.16
2019-02-14T07:35:42.348Z,18.67
2019-02-14T07:38:16.188Z,18.44
2019-02-14T07:40:50.704Z,18.77
2019-02-14T07:43:24.716Z,19.15
2019-02-14T07:45:58.818Z,19.34
2019-02-14T07:48:33.571Z,19.08
2019-02-14T07:51:07.998Z,18.66
2019-02-14T07:53:44.892Z,18.53
2019-02-14T07:56:19.733Z,18.34
2019-02-14T07:58:56.074Z,18.59
2019-02-14T08:01:32.384Z,18.89
2019-02-14T08:04:09.434Z,18.91
2019-02-14T08:06:46.780Z,18.81
2019-02-14T08:09:22.811Z,18.80
2019-02-14T08:12:00.790Z,18.85
2019-02-14T08:14:35.607Z,18.87
2019-02-14T08:17:10.237Z,19.29
2019-02-14T08:19:45.523Z,19.05
2019-02-14T08:22:20.334Z,19.32
2019-02-14T08:24:56.304Z,19.78
2019-02-14T08:27:33.330Z,19.22
2019-02-14T08:30:09.881Z,19.42
2019-02-14T08:32:45.880Z,19.62
2019-02-14T08:35:20.094Z,19.69
2019-02-14T08:38:07.031Z,19.05
2019-02-14T08:43:31.110Z,19.36
2019-02-14T08:46:05.212Z,19.70
2019-02-14T08:48:39.514Z,19.73
2019-02-14T08:51:13.674Z,19.47
2019-02-14T08:53:50.127Z,19.32
2019-02-14T08:56:26.615Z,19.93
2019-02-14T08:59:01.713Z,19.58
2019-02-14T09:01:38.493Z,20.10
2019-02-14T09:04:14.065Z,20.00
2019-02-14T09:06:48.651Z,19.94
2019-02-14T09:09:23.746Z,19.81
2019-02-14T09:11:58.954Z,20.16
2019-02-14T09:14:33.826Z,20.11
2019-02-14T09:17:09.767Z,20.04
2019-02-14T09:19:49.010Z,21.01
2019-02-14T09:22:27.025Z,21.18
2019-02-14T09:25:02.907Z,21.22
2019-02-14T09:27:38.875Z,21.01
2019-02-14T09:30:15.866Z,20.40
2019-02-14T09:32:52.226Z,20.35
2019-02-14T09:35:33.929Z,20.74
2019-02-14T09:41:01.493Z,20.98
2019-02-14T09:43:41.511Z,21.56
2019-02-14T09:46:26.729Z,21.35
2019-02-14T09:49:04.205Z,21.07
2019-02-14T09:51:45.233Z,21.25
2019-02-14T09:54:21.001Z,21.12
2019-02-14T09:56:57.126Z,22.63
2019-02-14T09:59:35.510Z,21.89
2019-02-14T10:02:14.198Z,22.15
2019-02-14T10:04:56.876Z,22.43
2019-02-14T10:07:47.185Z,22.24
2019-02-14T10:10:27.534Z,22.58
2019-02-14T10:13:09.530Z,22.44
2019-02-14T10:15:46.430Z,22.91
2019-02-14T10:18:27.783Z,21.52
2019-02-14T10:21:04.026Z,22.92
2019-02-14T10:23:43.084Z,21.80
2019-02-14T10:26:23.125Z,22.37
2019-02-14T10:29:01.581Z,21.79
2019-02-14T10:31:38.955Z,21.97
2019-02-14T10:34:17.731Z,22.52
2019-02-14T10:36:56.884Z,22.13
2019-02-14T10:39:35.648Z,22.24
2019-02-14T10:42:13.078Z,21.79
2019-02-14T10:44:49.423Z,23.30
2019-02-14T10:47:27.834Z,21.74
2019-02-14T10:50:08.828Z,22.14
2019-02-14T10:52:44.174Z,22.74
2019-02-14T10:55:20.707Z,22.51
2019-02-14T10:57:56.991Z,21.79
2019-02-14T11:00:35.330Z,22.41
2019-02-14T11:03:11.215Z,21.81
2019-02-14T11:05:53.798Z,22.84
2019-02-14T11:08:32.000Z,22.86
2019-02-14T11:11:13.579Z,22.88
2019-02-14T11:13:57.662Z,22.96
2019-02-14T11:16:35.453Z,23.30
2019-02-14T11:19:13.076Z,24.08
2019-02-14T11:21:52.670Z,23.22
2019-02-14T11:24:32.920Z,22.92
2019-02-14T11:27:09.601Z,23.33
2019-02-14T11:29:47.476Z,22.95
2019-02-14T11:32:25.294Z,22.54
2019-02-14T11:35:02.598Z,22.33
2019-02-14T11:37:37.543Z,22.56
2019-02-14T11:40:17.900Z,22.35
2019-02-14T11:42:52.854Z,24.79
2019-02-14T11:45:28.858Z,23.22
2019-02-14T11:48:07.080Z,23.30
2019-02-14T11:50:49.519Z,22.33
2019-02-14T11:53:25.370Z,24.40
2019-02-14T11:56:20.402Z,24.25
2019-02-14T11:58:55.670Z,23.73
2019-02-14T12:01:34.213Z,23.83
2019-02-14T12:04:12.004Z,23.77
2019-02-14T12:06:48.925Z,23.52
2019-02-14T12:09:25.956Z,24.05
2019-02-14T12:12:08.548Z,24.02
2019-02-14T12:14:47.617Z,25.00
2019-02-14T12:17:27.997Z,25.06
2019-02-14T12:20:12.203Z,25.01
2019-02-14T12:22:46.745Z,24.69
2019-02-14T12:25:29.373Z,25.20
2019-02-14T12:28:07.245Z,24.91
2019-02-14T12:30:52.058Z,25.76
2019-02-14T12:33:28.287Z,24.94
2019-02-14T12:36:10.937Z,24.77
2019-02-14T12:38:47.161Z,25.55
2019-02-14T12:41:26.286Z,25.69
2019-02-14T12:44:04.433Z,24.37
2019-02-14T12:49:23.730Z,25.52
2019-02-14T12:52:02.362Z,27.51
2019-02-14T12:54:39.943Z,25.77
2019-02-14T12:57:18.324Z,26.64
2019-02-14T12:59:54.147Z,26.13
2019-02-14T13:02:31.706Z,25.69
2019-02-14T13:05:07.025Z,25.86
2019-02-14T13:14:57.917Z,26.86
2019-02-14T13:16:45.079Z,26.70
2019-02-14T13:26:08.159Z,26.51
2019-02-14T13:28:01.370Z,26.94
2019-02-14T13:30:58.748Z,26.47
2019-02-14T13:34:19.167Z,25.95
2019-02-14T14:04:52.179Z,26.15
2019-02-14T14:07:28.495Z,25.69
2019-02-14T14:10:04.892Z,26.22
2019-02-14T14:12:42.395Z,25.36
2019-02-14T14:15:24.554Z,26.25
2019-02-14T14:18:05.703Z,27.51
2019-02-14T14:26:56.736Z,25.88
2019-02-14T14:47:35.898Z,28.27
2019-02-14T14:50:14.466Z,28.29
2019-02-14T14:52:48.977Z,25.97
2019-02-14T14:55:26.323Z,25.97
2019-02-14T14:58:03.429Z,25.91
2019-02-14T15:00:37.795Z,27.73
2019-02-14T15:03:12.969Z,26.27
2019-02-14T15:05:47.434Z,27.43
2019-02-14T15:08:23.476Z,27.61
2019-02-14T15:10:58.283Z,27.25
2019-02-14T15:13:32.714Z,28.34
2019-02-14T15:16:11.970Z,28.13
2019-02-14T15:18:46.245Z,28.38
2019-02-14T15:21:22.420Z,27.59
2019-02-14T15:23:56.920Z,26.83
2019-02-14T15:26:32.989Z,26.75
2019-02-14T15:29:07.400Z,26.64
2019-02-14T15:31:41.697Z,27.75
2019-02-14T15:34:16.123Z,28.86
2019-02-14T15:36:52.514Z,28.86
2019-02-14T15:39:30.365Z,28.62
2019-02-14T15:42:02.271Z,27.95
2019-02-14T15:44:43.760Z,27.83
2019-02-14T15:47:18.135Z,27.04
2019-02-14T15:49:52.755Z,28.05
2019-02-14T15:52:27.476Z,28.35
2019-02-14T15:55:05.395Z,28.22
2019-02-14T15:57:42.128Z,27.83
2019-02-14T16:00:16.564Z,27.39
2019-02-14T16:02:53.608Z,27.09
2019-02-14T16:05:26.508Z,26.84
2019-02-14T16:08:02.454Z,28.99
2019-02-14T16:10:38.517Z,28.59
2019-02-14T16:13:13.155Z,27.22
2019-02-14T16:15:47.618Z,27.01
2019-02-14T16:18:23.272Z,27.74
2019-02-14T16:20:57.662Z,26.46
2019-02-14T16:23:34.295Z,26.93
2019-02-14T16:26:09.033Z,27.67
2019-02-14T16:28:43.751Z,26.43
2019-02-14T16:31:17.818Z,27.27
2019-02-14T16:33:54.043Z,27.34
2019-02-14T16:36:28.529Z,26.97
2019-02-14T16:39:03.165Z,26.81
2019-02-14T16:41:37.691Z,27.15
2019-02-14T16:44:12.318Z,26.75
2019-02-14T16:46:46.438Z,27.53
2019-02-14T16:49:20.747Z,27.17
2019-02-14T16:51:55.237Z,26.11
2019-02-14T16:54:29.619Z,25.67
2019-02-14T16:57:03.988Z,26.39
2019-02-14T16:59:38.380Z,26.33
2019-02-14T17:02:12.618Z,27.30
2019-02-14T17:04:50.035Z,27.03
2019-02-14T17:07:24.616Z,27.71
2019-02-14T17:10:02.386Z,26.22
2019-02-14T17:12:36.658Z,25.42
2019-02-14T17:15:12.440Z,25.24
2019-02-14T17:17:46.971Z,25.23
2019-02-14T17:20:22.949Z,25.42
2019-02-14T17:22:57.189Z,25.80
2019-02-14T17:25:31.854Z,28.27
2019-02-14T17:28:07.045Z,31.02
2019-02-14T17:30:41.483Z,33.25
2019-02-14T17:33:15.683Z,36.71
2019-02-14T17:35:49.948Z,42.91
2019-02-14T17:38:23.986Z,44.52
2019-02-14T17:40:58.107Z,49.11
2019-02-14T17:43:32.254Z,50.62
2019-02-14T17:46:06.662Z,52.96
2019-02-14T17:48:43.780Z,57.06
2019-02-14T17:51:18.014Z,57.06
2019-02-14T17:53:52.612Z,58.24
2019-02-14T17:56:27.036Z,59.65
2019-02-14T17:59:01.453Z,61.96
2019-02-14T18:01:35.900Z,62.83
2019-02-14T18:04:10.343Z,62.96
2019-02-14T18:06:44.635Z,64.38
2019-02-14T18:09:25.177Z,65.00
2019-02-14T18:11:59.731Z,65.43
2019-02-14T18:14:34.269Z,65.69
2019-02-14T18:17:08.678Z,67.00
2019-02-14T18:20:04.459Z,66.28
2019-02-14T18:22:39.304Z,66.97
2019-02-14T18:25:16.812Z,67.32
2019-02-14T18:27:51.023Z,67.40
2019-02-14T18:30:28.164Z,67.45
2019-02-14T18:33:02.659Z,68.70
2019-02-14T18:35:37.156Z,68.62
2019-02-14T18:38:11.707Z,68.85
2019-02-14T18:40:46.205Z,69.35
2019-02-14T18:43:23.215Z,69.64
2019-02-14T18:46:06.543Z,69.64
2019-02-14T18:48:34.127Z,69.52
2019-02-14T18:51:08.443Z,70.25
2019-02-14T18:53:42.623Z,69.63
2019-02-14T18:56:20.586Z,70.13
2019-02-14T18:58:54.976Z,69.94
2019-02-14T19:01:29.325Z,69.90
2019-02-14T19:04:04.347Z,70.09
2019-02-14T19:06:39.662Z,70.16
2019-02-14T19:09:15.106Z,69.71
2019-02-14T19:11:52.986Z,70.25
2019-02-14T19:14:27.978Z,70.36
2019-02-14T19:17:03.181Z,70.58
2019-02-14T19:19:39.364Z,70.58
2019-02-14T19:22:13.841Z,70.23
2019-02-14T19:24:51.262Z,70.46
2019-02-14T19:27:25.742Z,70.92
2019-02-14T19:30:00.943Z,70.15
2019-02-14T19:32:36.025Z,70.57
2019-02-14T19:35:22.818Z,70.68
2019-02-14T19:37:50.965Z,70.88
2019-02-14T19:40:25.587Z,70.96
2019-02-14T19:42:59.934Z,71.17
2019-02-14T19:45:36.713Z,71.41
2019-02-14T19:48:09.475Z,71.18
2019-02-14T19:50:43.688Z,71.21
2019-02-14T19:53:18.010Z,70.91
2019-02-14T19:55:52.289Z,70.66
2019-02-14T19:58:46.812Z,70.08
2019-02-14T20:01:21.178Z,70.36
2019-02-14T20:03:55.447Z,71.01
2019-02-14T20:06:29.566Z,70.80
2019-02-14T20:09:03.819Z,71.30
2019-02-14T20:11:38.368Z,71.44
2019-02-14T20:14:12.484Z,71.26
2019-02-14T20:16:46.474Z,71.02
2019-02-14T20:19:20.233Z,71.15
2019-02-14T20:21:54.201Z,70.93
2019-02-14T20:24:27.859Z,70.61
2019-02-14T20:27:04.756Z,70.58
2019-02-14T20:29:40.068Z,70.81
2019-02-14T20:32:13.772Z,71.25
2019-02-14T20:34:47.545Z,70.96
2019-02-14T20:37:21.469Z,71.10
2019-02-14T20:39:55.630Z,71.31
2019-02-14T20:42:29.987Z,71.43
2019-02-14T20:45:03.939Z,71.17
2019-02-14T20:47:38.224Z,71.50
2019-02-14T20:50:14.565Z,71.14
2019-02-14T20:52:48.587Z,71.28
2019-02-14T20:55:29.148Z,71.49
2019-02-14T20:58:03.970Z,71.52
2019-02-14T21:00:38.658Z,71.77
2019-02-14T21:03:12.559Z,71.69
2019-02-14T21:05:46.444Z,71.78
2019-02-14T21:08:24.922Z,72.14
2019-02-14T21:10:58.468Z,71.76
2019-02-14T21:13:32.313Z,71.96
2019-02-14T21:16:06.740Z,72.45
2019-02-14T21:18:40.723Z,72.78
2019-02-14T21:21:19.394Z,72.31
2019-02-14T21:23:54.759Z,72.57
2019-02-14T21:26:30.483Z,72.11
2019-02-14T21:29:04.400Z,72.36
2019-02-14T21:31:38.147Z,72.18
2019-02-14T21:34:11.867Z,72.20
2019-02-14T21:36:45.968Z,71.89
2019-02-14T21:39:19.831Z,71.96
2019-02-14T21:42:17.409Z,72.20
2019-02-14T21:44:30.153Z,71.97
2019-02-14T21:47:03.954Z,72.50
2019-02-14T21:49:38.077Z,72.61
2019-02-14T21:52:15.752Z,72.37
2019-02-14T21:54:51.666Z,72.34
2019-02-14T21:57:26.300Z,72.37
2019-02-14T22:00:27.680Z,72.31
2019-02-14T22:03:01.664Z,72.34
2019-02-14T22:05:37.388Z,71.81
2019-02-14T22:08:11.609Z,71.67
2019-02-14T22:10:46.767Z,71.73
2019-02-14T22:13:22.200Z,71.21
2019-02-14T22:15:56.459Z,71.22
2019-02-14T22:18:30.941Z,71.36
2019-02-14T22:21:29.027Z,71.56
2019-02-14T22:24:01.616Z,71.76
2019-02-14T22:26:38.573Z,71.51
2019-02-14T22:29:10.859Z,71.20
2019-02-14T22:31:44.584Z,70.89
2019-02-14T22:34:18.097Z,70.76
2019-02-14T22:36:51.890Z,70.86
2019-02-14T22:39:27.302Z,70.81
2019-02-14T22:42:01.180Z,70.53
2019-02-14T22:44:35.587Z,70.70
2019-02-14T22:47:11.014Z,70.57
2019-02-14T22:49:45.131Z,70.58
2019-02-14T22:52:19.428Z,70.61
2019-02-14T22:54:52.717Z,70.66
2019-02-14T23:00:29.134Z,70.80
2019-02-14T23:03:02.941Z,70.72
2019-02-14T23:05:38.080Z,70.66
2019-02-14T23:08:12.145Z,70.87
2019-02-14T23:10:47.125Z,70.71
2019-02-14T23:13:20.520Z,70.47
2019-02-14T23:15:54.356Z,70.77
2019-02-14T23:18:29.958Z,70.77
2019-02-14T23:21:03.637Z,70.75
2019-02-14T23:23:37.254Z,70.69
2019-02-14T23:26:10.636Z,71.11
2019-02-14T23:28:44.280Z,70.99
2019-02-14T23:31:18.669Z,71.07
2019-02-14T23:33:52.496Z,82.22
2019-02-14T23:36:26.310Z,83.66
2019-02-14T23:39:00.298Z,77.36
2019-02-14T23:41:34.174Z,63.86
2019-02-14T23:44:08.274Z,62.28
2019-02-14T23:46:42.102Z,63.58
2019-02-14T23:49:17.777Z,64.58
2019-02-14T23:51:51.654Z,65.60
2019-02-14T23:54:25.927Z,65.61
2019-02-14T23:56:59.907Z,67.26
2019-02-14T23:59:33.441Z,67.60
